sensor_id;sensor_type;location;lat;lon;timestamp;P1;durP1;ratioP1;P2;durP2;ratioP2
18340;SDS011;9296;48.084;16.352;2023-02-14T00:01:05;10.50;;;6.07;;
18340;SDS011;9296;48.084;16.352;2023-02-14T00:03:33;10.18;;;6.18;;
18340;SDS011;9296;48.084;16.352;2023-02-14T00:06:04;10.23;;;5.88;;
18340;SDS011;9296;48.084;16.352;2023-02-14T00:08:31;10.50;;;6.03;;
18340;SDS011;9296;48.084;16.352;2023-02-14T00:10:59;9.70;;;6.07;;
18340;SDS011;9296;48.084;16.352;2023-02-14T00:19:35;10.10;;;6.38;;
18340;SDS011;9296;48.084;16.352;2023-02-14T00:22:03;10.63;;;6.75;;
18340;SDS011;9296;48.084;16.352;2023-02-14T00:24:30;11.70;;;6.50;;
18340;SDS011;9296;48.084;16.352;2023-02-14T00:26:57;11.45;;;7.00;;
18340;SDS011;9296;48.084;16.352;2023-02-14T00:32:28;11.63;;;6.18;;
18340;SDS011;9296;48.084;16.352;2023-02-14T00:34:57;10.63;;;6.65;;
18340;SDS011;9296;48.084;16.352;2023-02-14T00:37:24;12.15;;;7.03;;
18340;SDS011;9296;48.084;16.352;2023-02-14T00:39:51;11.32;;;7.30;;
18340;SDS011;9296;48.084;16.352;2023-02-14T00:42:19;11.43;;;6.88;;
18340;SDS011;9296;48.084;16.352;2023-02-14T00:44:46;11.45;;;6.38;;
18340;SDS011;9296;48.084;16.352;2023-02-14T00:47:13;14.50;;;7.22;;
18340;SDS011;9296;48.084;16.352;2023-02-14T00:49:40;10.57;;;6.53;;
18340;SDS011;9296;48.084;16.352;2023-02-14T00:52:09;11.77;;;7.35;;
18340;SDS011;9296;48.084;16.352;2023-02-14T00:54:36;11.07;;;6.78;;
18340;SDS011;9296;48.084;16.352;2023-02-14T00:57:03;11.68;;;6.88;;
18340;SDS011;9296;48.084;16.352;2023-02-14T01:02:34;10.52;;;6.53;;
18340;SDS011;9296;48.084;16.352;2023-02-14T01:05:01;10.25;;;6.70;;
18340;SDS011;9296;48.084;16.352;2023-02-14T01:07:30;10.10;;;6.30;;
18340;SDS011;9296;48.084;16.352;2023-02-14T01:09:57;10.43;;;6.68;;
18340;SDS011;9296;48.084;16.352;2023-02-14T01:12:24;8.90;;;6.10;;
18340;SDS011;9296;48.084;16.352;2023-02-14T01:14:54;10.75;;;6.65;;
18340;SDS011;9296;48.084;16.352;2023-02-14T01:17:21;10.65;;;6.55;;
18340;SDS011;9296;48.084;16.352;2023-02-14T01:19:50;10.82;;;6.68;;
18340;SDS011;9296;48.084;16.352;2023-02-14T01:22:17;12.23;;;5.75;;
18340;SDS011;9296;48.084;16.352;2023-02-14T01:24:46;10.23;;;6.38;;
18340;SDS011;9296;48.084;16.352;2023-02-14T01:27:13;9.70;;;5.97;;
18340;SDS011;9296;48.084;16.352;2023-02-14T01:32:45;11.07;;;6.38;;
18340;SDS011;9296;48.084;16.352;2023-02-14T01:35:12;11.57;;;6.82;;
18340;SDS011;9296;48.084;16.352;2023-02-14T01:37:39;10.80;;;6.68;;
18340;SDS011;9296;48.084;16.352;2023-02-14T01:40:09;10.43;;;6.25;;
18340;SDS011;9296;48.084;16.352;2023-02-14T01:42:37;9.45;;;6.03;;
18340;SDS011;9296;48.084;16.352;2023-02-14T01:45:05;10.20;;;6.43;;
18340;SDS011;9296;48.084;16.352;2023-02-14T01:47:33;12.07;;;6.82;;
18340;SDS011;9296;48.084;16.352;2023-02-14T01:50:03;11.98;;;7.25;;
18340;SDS011;9296;48.084;16.352;2023-02-14T01:52:32;11.52;;;7.03;;
18340;SDS011;9296;48.084;16.352;2023-02-14T01:55:03;11.15;;;7.03;;
18340;SDS011;9296;48.084;16.352;2023-02-14T01:57:34;11.57;;;6.95;;
18340;SDS011;9296;48.084;16.352;2023-02-14T02:00:04;12.77;;;7.05;;
18340;SDS011;9296;48.084;16.352;2023-02-14T02:02:49;10.93;;;6.15;;
18340;SDS011;9296;48.084;16.352;2023-02-14T02:05:16;10.60;;;6.57;;
18340;SDS011;9296;48.084;16.352;2023-02-14T02:07:47;10.82;;;6.65;;
18340;SDS011;9296;48.084;16.352;2023-02-14T02:10:15;12.65;;;7.10;;
18340;SDS011;9296;48.084;16.352;2023-02-14T02:12:43;12.40;;;7.00;;
18340;SDS011;9296;48.084;16.352;2023-02-14T02:18:16;10.10;;;6.32;;
18340;SDS011;9296;48.084;16.352;2023-02-14T02:20:57;12.18;;;6.85;;
18340;SDS011;9296;48.084;16.352;2023-02-14T02:31:57;10.18;;;6.57;;
18340;SDS011;9296;48.084;16.352;2023-02-14T02:34:42;10.02;;;6.10;;
18340;SDS011;9296;48.084;16.352;2023-02-14T02:37:19;12.00;;;6.95;;
18340;SDS011;9296;48.084;16.352;2023-02-14T02:39:57;13.90;;;6.85;;
18340;SDS011;9296;48.084;16.352;2023-02-14T02:42:28;12.52;;;7.05;;
18340;SDS011;9296;48.084;16.352;2023-02-14T02:48:03;11.43;;;6.75;;
18340;SDS011;9296;48.084;16.352;2023-02-14T02:50:31;13.48;;;7.75;;
18340;SDS011;9296;48.084;16.352;2023-02-14T02:53:19;13.20;;;7.45;;
18340;SDS011;9296;48.084;16.352;2023-02-14T02:55:50;12.75;;;7.10;;
18340;SDS011;9296;48.084;16.352;2023-02-14T02:58:38;11.55;;;7.05;;
18340;SDS011;9296;48.084;16.352;2023-02-14T03:01:08;12.95;;;7.45;;
18340;SDS011;9296;48.084;16.352;2023-02-14T03:03:35;11.95;;;7.30;;
18340;SDS011;9296;48.084;16.352;2023-02-14T03:06:21;12.50;;;7.55;;
18340;SDS011;9296;48.084;16.352;2023-02-14T03:08:49;12.23;;;7.10;;
18340;SDS011;9296;48.084;16.352;2023-02-14T03:11:16;13.82;;;7.18;;
18340;SDS011;9296;48.084;16.352;2023-02-14T03:13:56;12.55;;;7.35;;
18340;SDS011;9296;48.084;16.352;2023-02-14T03:16:32;13.70;;;7.30;;
18340;SDS011;9296;48.084;16.352;2023-02-14T03:19:16;14.13;;;7.97;;
18340;SDS011;9296;48.084;16.352;2023-02-14T03:21:50;12.75;;;7.53;;
18340;SDS011;9296;48.084;16.352;2023-02-14T03:24:22;13.90;;;7.70;;
18340;SDS011;9296;48.084;16.352;2023-02-14T03:26:52;13.63;;;7.82;;
18340;SDS011;9296;48.084;16.352;2023-02-14T03:29:52;13.10;;;7.72;;
18340;SDS011;9296;48.084;16.352;2023-02-14T03:32:24;12.98;;;8.05;;
18340;SDS011;9296;48.084;16.352;2023-02-14T03:34:54;14.48;;;8.10;;
18340;SDS011;9296;48.084;16.352;2023-02-14T03:37:24;13.70;;;7.88;;
18340;SDS011;9296;48.084;16.352;2023-02-14T03:39:57;13.55;;;8.15;;
18340;SDS011;9296;48.084;16.352;2023-02-14T03:42:26;15.48;;;8.60;;
18340;SDS011;9296;48.084;16.352;2023-02-14T03:47:59;14.55;;;8.50;;
18340;SDS011;9296;48.084;16.352;2023-02-14T03:50:26;16.30;;;8.57;;
18340;SDS011;9296;48.084;16.352;2023-02-14T03:52:54;16.23;;;8.85;;
18340;SDS011;9296;48.084;16.352;2023-02-14T03:55:26;17.40;;;8.68;;
18340;SDS011;9296;48.084;16.352;2023-02-14T03:57:54;14.32;;;8.75;;
18340;SDS011;9296;48.084;16.352;2023-02-14T04:00:24;16.05;;;9.00;;
18340;SDS011;9296;48.084;16.352;2023-02-14T04:02:53;16.90;;;9.75;;
18340;SDS011;9296;48.084;16.352;2023-02-14T04:05:22;17.10;;;9.85;;
18340;SDS011;9296;48.084;16.352;2023-02-14T04:07:50;17.98;;;9.00;;
18340;SDS011;9296;48.084;16.352;2023-02-14T04:10:18;18.92;;;9.43;;
18340;SDS011;9296;48.084;16.352;2023-02-14T04:12:47;16.73;;;9.95;;
18340;SDS011;9296;48.084;16.352;2023-02-14T04:15:14;17.33;;;9.38;;
18340;SDS011;9296;48.084;16.352;2023-02-14T04:17:42;19.10;;;10.68;;
18340;SDS011;9296;48.084;16.352;2023-02-14T04:20:27;19.60;;;9.82;;
18340;SDS011;9296;48.084;16.352;2023-02-14T04:22:54;18.38;;;10.45;;
18340;SDS011;9296;48.084;16.352;2023-02-14T04:25:21;19.58;;;10.40;;
18340;SDS011;9296;48.084;16.352;2023-02-14T04:27:50;20.15;;;10.55;;
18340;SDS011;9296;48.084;16.352;2023-02-14T04:33:03;20.30;;;11.55;;
18340;SDS011;9296;48.084;16.352;2023-02-14T04:35:32;19.50;;;10.60;;
18340;SDS011;9296;48.084;16.352;2023-02-14T04:37:59;19.90;;;9.80;;
18340;SDS011;9296;48.084;16.352;2023-02-14T04:40:26;18.33;;;10.60;;
18340;SDS011;9296;48.084;16.352;2023-02-14T04:42:55;20.52;;;10.95;;
18340;SDS011;9296;48.084;16.352;2023-02-14T04:48:28;19.73;;;10.55;;
18340;SDS011;9296;48.084;16.352;2023-02-14T04:50:55;18.20;;;10.77;;
18340;SDS011;9296;48.084;16.352;2023-02-14T04:53:22;22.23;;;10.77;;
18340;SDS011;9296;48.084;16.352;2023-02-14T04:55:49;21.08;;;10.75;;
18340;SDS011;9296;48.084;16.352;2023-02-14T04:58:18;21.23;;;11.82;;
18340;SDS011;9296;48.084;16.352;2023-02-14T05:00:45;20.20;;;10.82;;
18340;SDS011;9296;48.084;16.352;2023-02-14T05:03:13;20.70;;;10.40;;
18340;SDS011;9296;48.084;16.352;2023-02-14T05:05:40;19.70;;;10.93;;
18340;SDS011;9296;48.084;16.352;2023-02-14T05:08:07;21.35;;;11.25;;
18340;SDS011;9296;48.084;16.352;2023-02-14T05:10:34;20.80;;;10.73;;
18340;SDS011;9296;48.084;16.352;2023-02-14T05:13:01;21.67;;;10.80;;
18340;SDS011;9296;48.084;16.352;2023-02-14T05:15:30;21.95;;;11.18;;
18340;SDS011;9296;48.084;16.352;2023-02-14T05:17:57;22.98;;;11.93;;
18340;SDS011;9296;48.084;16.352;2023-02-14T05:20:27;21.83;;;12.27;;
18340;SDS011;9296;48.084;16.352;2023-02-14T05:22:54;23.63;;;12.25;;
18340;SDS011;9296;48.084;16.352;2023-02-14T05:25:23;24.58;;;12.35;;
18340;SDS011;9296;48.084;16.352;2023-02-14T05:27:51;24.58;;;12.50;;
18340;SDS011;9296;48.084;16.352;2023-02-14T05:30:18;24.48;;;12.65;;
18340;SDS011;9296;48.084;16.352;2023-02-14T05:32:50;24.25;;;12.88;;
18340;SDS011;9296;48.084;16.352;2023-02-14T05:35:18;24.38;;;12.77;;
18340;SDS011;9296;48.084;16.352;2023-02-14T05:37:45;24.40;;;12.85;;
18340;SDS011;9296;48.084;16.352;2023-02-14T05:40:12;22.25;;;12.20;;
18340;SDS011;9296;48.084;16.352;2023-02-14T05:42:40;24.67;;;13.05;;
18340;SDS011;9296;48.084;16.352;2023-02-14T05:45:08;21.80;;;12.95;;
18340;SDS011;9296;48.084;16.352;2023-02-14T05:47:35;23.80;;;12.13;;
18340;SDS011;9296;48.084;16.352;2023-02-14T05:50:05;25.67;;;12.63;;
18340;SDS011;9296;48.084;16.352;2023-02-14T05:52:32;27.05;;;12.77;;
18340;SDS011;9296;48.084;16.352;2023-02-14T05:54:59;22.83;;;12.23;;
18340;SDS011;9296;48.084;16.352;2023-02-14T05:57:27;23.90;;;12.60;;
18340;SDS011;9296;48.084;16.352;2023-02-14T05:59:54;22.40;;;12.63;;
18340;SDS011;9296;48.084;16.352;2023-02-14T06:02:21;22.67;;;11.85;;
18340;SDS011;9296;48.084;16.352;2023-02-14T06:04:48;21.75;;;11.75;;
18340;SDS011;9296;48.084;16.352;2023-02-14T06:07:17;24.33;;;13.00;;
18340;SDS011;9296;48.084;16.352;2023-02-14T06:09:44;22.67;;;11.80;;
18340;SDS011;9296;48.084;16.352;2023-02-14T06:12:11;23.45;;;12.43;;
18340;SDS011;9296;48.084;16.352;2023-02-14T06:14:38;28.33;;;13.13;;
18340;SDS011;9296;48.084;16.352;2023-02-14T06:17:06;25.00;;;12.80;;
18340;SDS011;9296;48.084;16.352;2023-02-14T06:19:34;24.08;;;12.88;;
18340;SDS011;9296;48.084;16.352;2023-02-14T06:22:01;28.02;;;12.70;;
18340;SDS011;9296;48.084;16.352;2023-02-14T06:24:30;24.33;;;12.15;;
18340;SDS011;9296;48.084;16.352;2023-02-14T06:26:57;24.85;;;12.82;;
18340;SDS011;9296;48.084;16.352;2023-02-14T06:29:24;21.98;;;11.85;;
18340;SDS011;9296;48.084;16.352;2023-02-14T06:31:52;25.55;;;13.57;;
18340;SDS011;9296;48.084;16.352;2023-02-14T06:34:19;20.08;;;11.85;;
18340;SDS011;9296;48.084;16.352;2023-02-14T06:36:46;22.60;;;12.55;;
18340;SDS011;9296;48.084;16.352;2023-02-14T06:39:13;21.17;;;11.48;;
18340;SDS011;9296;48.084;16.352;2023-02-14T06:41:42;20.92;;;11.73;;
18340;SDS011;9296;48.084;16.352;2023-02-14T06:44:09;20.88;;;11.82;;
18340;SDS011;9296;48.084;16.352;2023-02-14T06:46:36;19.83;;;11.90;;
18340;SDS011;9296;48.084;16.352;2023-02-14T06:49:03;20.05;;;10.80;;
18340;SDS011;9296;48.084;16.352;2023-02-14T06:51:31;21.33;;;11.30;;
18340;SDS011;9296;48.084;16.352;2023-02-14T06:53:58;20.98;;;11.55;;
18340;SDS011;9296;48.084;16.352;2023-02-14T06:56:25;19.73;;;10.95;;
18340;SDS011;9296;48.084;16.352;2023-02-14T07:01:45;20.90;;;11.93;;
18340;SDS011;9296;48.084;16.352;2023-02-14T07:04:12;23.25;;;12.55;;
18340;SDS011;9296;48.084;16.352;2023-02-14T07:06:39;21.25;;;13.48;;
18340;SDS011;9296;48.084;16.352;2023-02-14T07:09:07;25.15;;;13.63;;
18340;SDS011;9296;48.084;16.352;2023-02-14T07:11:34;21.60;;;13.40;;
18340;SDS011;9296;48.084;16.352;2023-02-14T07:16:49;22.15;;;12.20;;
18340;SDS011;9296;48.084;16.352;2023-02-14T07:19:16;17.92;;;11.57;;
18340;SDS011;9296;48.084;16.352;2023-02-14T07:21:43;18.73;;;11.68;;
18340;SDS011;9296;48.084;16.352;2023-02-14T07:24:10;18.60;;;11.55;;
18340;SDS011;9296;48.084;16.352;2023-02-14T07:26:37;16.50;;;10.43;;
18340;SDS011;9296;48.084;16.352;2023-02-14T07:29:23;14.73;;;10.02;;
18340;SDS011;9296;48.084;16.352;2023-02-14T07:31:51;17.83;;;11.23;;
18340;SDS011;9296;48.084;16.352;2023-02-14T07:34:18;16.95;;;10.85;;
18340;SDS011;9296;48.084;16.352;2023-02-14T07:36:45;16.83;;;10.75;;
18340;SDS011;9296;48.084;16.352;2023-02-14T07:39:13;16.60;;;10.77;;
18340;SDS011;9296;48.084;16.352;2023-02-14T07:41:40;18.88;;;11.20;;
18340;SDS011;9296;48.084;16.352;2023-02-14T07:44:26;16.63;;;10.63;;
18340;SDS011;9296;48.084;16.352;2023-02-14T07:46:55;24.35;;;11.00;;
18340;SDS011;9296;48.084;16.352;2023-02-14T07:49:22;17.42;;;10.07;;
18340;SDS011;9296;48.084;16.352;2023-02-14T07:51:49;17.23;;;10.80;;
18340;SDS011;9296;48.084;16.352;2023-02-14T07:54:16;18.30;;;10.57;;
18340;SDS011;9296;48.084;16.352;2023-02-14T07:56:43;19.60;;;11.00;;
18340;SDS011;9296;48.084;16.352;2023-02-14T08:01:59;18.08;;;10.40;;
18340;SDS011;9296;48.084;16.352;2023-02-14T08:04:26;21.80;;;11.02;;
18340;SDS011;9296;48.084;16.352;2023-02-14T08:06:53;20.00;;;11.30;;
18340;SDS011;9296;48.084;16.352;2023-02-14T08:09:20;19.85;;;10.70;;
18340;SDS011;9296;48.084;16.352;2023-02-14T08:11:51;15.98;;;10.57;;
18340;SDS011;9296;48.084;16.352;2023-02-14T08:14:36;20.15;;;11.93;;
18340;SDS011;9296;48.084;16.352;2023-02-14T08:17:05;17.75;;;10.80;;
18340;SDS011;9296;48.084;16.352;2023-02-14T08:19:34;20.23;;;11.75;;
18340;SDS011;9296;48.084;16.352;2023-02-14T08:22:01;19.73;;;11.65;;
18340;SDS011;9296;48.084;16.352;2023-02-14T08:24:29;20.80;;;12.45;;
18340;SDS011;9296;48.084;16.352;2023-02-14T08:26:56;22.88;;;12.18;;
18340;SDS011;9296;48.084;16.352;2023-02-14T08:29:23;22.70;;;12.50;;
18340;SDS011;9296;48.084;16.352;2023-02-14T08:31:50;20.50;;;12.18;;
18340;SDS011;9296;48.084;16.352;2023-02-14T08:34:19;25.52;;;12.93;;
18340;SDS011;9296;48.084;16.352;2023-02-14T08:36:46;19.83;;;12.13;;
18340;SDS011;9296;48.084;16.352;2023-02-14T08:39:16;20.25;;;11.70;;
18340;SDS011;9296;48.084;16.352;2023-02-14T08:41:43;20.02;;;11.80;;
18340;SDS011;9296;48.084;16.352;2023-02-14T08:44:28;22.67;;;12.52;;
18340;SDS011;9296;48.084;16.352;2023-02-14T08:46:55;22.23;;;12.20;;
18340;SDS011;9296;48.084;16.352;2023-02-14T08:49:24;22.13;;;12.80;;
18340;SDS011;9296;48.084;16.352;2023-02-14T08:51:52;21.73;;;12.60;;
18340;SDS011;9296;48.084;16.352;2023-02-14T08:54:19;22.85;;;12.55;;
18340;SDS011;9296;48.084;16.352;2023-02-14T08:56:46;22.08;;;12.55;;
18340;SDS011;9296;48.084;16.352;2023-02-14T08:59:13;18.88;;;11.63;;
18340;SDS011;9296;48.084;16.352;2023-02-14T09:02:16;21.67;;;12.00;;
18340;SDS011;9296;48.084;16.352;2023-02-14T09:04:45;20.77;;;12.40;;
18340;SDS011;9296;48.084;16.352;2023-02-14T09:07:12;23.40;;;12.75;;
18340;SDS011;9296;48.084;16.352;2023-02-14T09:09:39;21.08;;;12.45;;
18340;SDS011;9296;48.084;16.352;2023-02-14T09:12:07;23.48;;;13.45;;
18340;SDS011;9296;48.084;16.352;2023-02-14T09:14:35;25.92;;;12.30;;
18340;SDS011;9296;48.084;16.352;2023-02-14T09:17:03;22.48;;;12.30;;
18340;SDS011;9296;48.084;16.352;2023-02-14T09:19:30;20.35;;;12.15;;
18340;SDS011;9296;48.084;16.352;2023-02-14T09:21:59;19.00;;;11.93;;
18340;SDS011;9296;48.084;16.352;2023-02-14T09:24:28;22.58;;;13.27;;
18340;SDS011;9296;48.084;16.352;2023-02-14T09:26:55;19.75;;;12.27;;
18340;SDS011;9296;48.084;16.352;2023-02-14T09:29:22;26.17;;;14.13;;
18340;SDS011;9296;48.084;16.352;2023-02-14T09:34:52;23.38;;;12.80;;
18340;SDS011;9296;48.084;16.352;2023-02-14T09:37:39;24.30;;;12.05;;
18340;SDS011;9296;48.084;16.352;2023-02-14T09:40:23;22.63;;;13.05;;
18340;SDS011;9296;48.084;16.352;2023-02-14T09:42:52;22.83;;;12.45;;
18340;SDS011;9296;48.084;16.352;2023-02-14T09:45:23;24.70;;;12.75;;
18340;SDS011;9296;48.084;16.352;2023-02-14T09:47:51;21.42;;;11.30;;
18340;SDS011;9296;48.084;16.352;2023-02-14T09:50:21;19.77;;;11.52;;
18340;SDS011;9296;48.084;16.352;2023-02-14T09:52:52;21.17;;;12.57;;
18340;SDS011;9296;48.084;16.352;2023-02-14T09:55:21;22.58;;;12.48;;
18340;SDS011;9296;48.084;16.352;2023-02-14T09:57:57;18.70;;;11.38;;
18340;SDS011;9296;48.084;16.352;2023-02-14T10:00:28;20.13;;;11.18;;
18340;SDS011;9296;48.084;16.352;2023-02-14T10:02:57;20.42;;;11.65;;
18340;SDS011;9296;48.084;16.352;2023-02-14T10:05:28;21.88;;;11.73;;
18340;SDS011;9296;48.084;16.352;2023-02-14T10:07:58;21.25;;;11.68;;
18340;SDS011;9296;48.084;16.352;2023-02-14T10:10:28;20.75;;;11.77;;
18340;SDS011;9296;48.084;16.352;2023-02-14T10:12:59;19.48;;;11.27;;
18340;SDS011;9296;48.084;16.352;2023-02-14T10:21:36;23.55;;;12.80;;
18340;SDS011;9296;48.084;16.352;2023-02-14T10:24:10;23.00;;;12.10;;
18340;SDS011;9296;48.084;16.352;2023-02-14T10:26:39;22.48;;;13.05;;
18340;SDS011;9296;48.084;16.352;2023-02-14T10:29:07;21.30;;;12.98;;
18340;SDS011;9296;48.084;16.352;2023-02-14T10:34:41;22.27;;;12.75;;
18340;SDS011;9296;48.084;16.352;2023-02-14T10:37:17;22.40;;;13.10;;
18340;SDS011;9296;48.084;16.352;2023-02-14T10:39:55;23.27;;;13.05;;
18340;SDS011;9296;48.084;16.352;2023-02-14T10:42:24;21.48;;;12.73;;
18340;SDS011;9296;48.084;16.352;2023-02-14T10:51:13;22.30;;;12.55;;
18340;SDS011;9296;48.084;16.352;2023-02-14T10:53:43;23.38;;;12.95;;
18340;SDS011;9296;48.084;16.352;2023-02-14T10:56:17;21.42;;;12.90;;
18340;SDS011;9296;48.084;16.352;2023-02-14T10:58:46;23.75;;;13.48;;
18340;SDS011;9296;48.084;16.352;2023-02-14T11:04:19;23.15;;;13.85;;
18340;SDS011;9296;48.084;16.352;2023-02-14T11:06:47;25.30;;;13.48;;
18340;SDS011;9296;48.084;16.352;2023-02-14T11:09:14;23.52;;;13.57;;
18340;SDS011;9296;48.084;16.352;2023-02-14T11:11:44;22.17;;;13.18;;
18340;SDS011;9296;48.084;16.352;2023-02-14T11:14:20;23.02;;;12.82;;
18340;SDS011;9296;48.084;16.352;2023-02-14T11:16:48;22.98;;;13.02;;
18340;SDS011;9296;48.084;16.352;2023-02-14T11:19:21;23.13;;;12.80;;
18340;SDS011;9296;48.084;16.352;2023-02-14T11:21:49;21.15;;;12.60;;
18340;SDS011;9296;48.084;16.352;2023-02-14T11:24:17;22.73;;;13.18;;
18340;SDS011;9296;48.084;16.352;2023-02-14T11:26:47;22.80;;;13.07;;
18340;SDS011;9296;48.084;16.352;2023-02-14T11:29:19;20.60;;;11.93;;
18340;SDS011;9296;48.084;16.352;2023-02-14T11:34:34;20.75;;;12.50;;
18340;SDS011;9296;48.084;16.352;2023-02-14T11:37:05;22.27;;;13.43;;
18340;SDS011;9296;48.084;16.352;2023-02-14T11:39:42;21.95;;;12.98;;
18340;SDS011;9296;48.084;16.352;2023-02-14T11:42:11;19.98;;;13.13;;
18340;SDS011;9296;48.084;16.352;2023-02-14T11:44:51;23.38;;;12.90;;
18340;SDS011;9296;48.084;16.352;2023-02-14T11:47:24;23.10;;;12.60;;
18340;SDS011;9296;48.084;16.352;2023-02-14T11:49:56;21.08;;;12.55;;
18340;SDS011;9296;48.084;16.352;2023-02-14T11:52:25;23.02;;;13.02;;
18340;SDS011;9296;48.084;16.352;2023-02-14T11:54:53;22.50;;;12.93;;
18340;SDS011;9296;48.084;16.352;2023-02-14T11:57:23;21.17;;;12.88;;
18340;SDS011;9296;48.084;16.352;2023-02-14T11:59:52;22.42;;;13.40;;
18340;SDS011;9296;48.084;16.352;2023-02-14T12:05:15;22.30;;;12.80;;
18340;SDS011;9296;48.084;16.352;2023-02-14T12:07:43;22.75;;;13.70;;
18340;SDS011;9296;48.084;16.352;2023-02-14T12:10:16;21.73;;;13.35;;
18340;SDS011;9296;48.084;16.352;2023-02-14T12:12:49;22.08;;;13.55;;
18340;SDS011;9296;48.084;16.352;2023-02-14T12:15:21;21.50;;;13.57;;
18340;SDS011;9296;48.084;16.352;2023-02-14T12:17:50;21.98;;;12.88;;
18340;SDS011;9296;48.084;16.352;2023-02-14T12:20:30;20.58;;;13.07;;
18340;SDS011;9296;48.084;16.352;2023-02-14T12:23:02;22.05;;;13.27;;
18340;SDS011;9296;48.084;16.352;2023-02-14T12:25:34;22.38;;;13.93;;
18340;SDS011;9296;48.084;16.352;2023-02-14T12:28:05;24.00;;;14.48;;
18340;SDS011;9296;48.084;16.352;2023-02-14T12:30:36;22.70;;;13.65;;
18340;SDS011;9296;48.084;16.352;2023-02-14T12:33:08;22.52;;;13.23;;
18340;SDS011;9296;48.084;16.352;2023-02-14T12:35:42;22.98;;;13.23;;
18340;SDS011;9296;48.084;16.352;2023-02-14T12:38:13;22.73;;;13.95;;
18340;SDS011;9296;48.084;16.352;2023-02-14T12:40:45;20.67;;;13.40;;
18340;SDS011;9296;48.084;16.352;2023-02-14T12:43:24;23.35;;;14.15;;
18340;SDS011;9296;48.084;16.352;2023-02-14T12:51:49;23.60;;;13.43;;
18340;SDS011;9296;48.084;16.352;2023-02-14T12:54:26;25.48;;;14.40;;
18340;SDS011;9296;48.084;16.352;2023-02-14T12:56:58;22.55;;;13.73;;
18340;SDS011;9296;48.084;16.352;2023-02-14T12:59:34;23.90;;;13.65;;
18340;SDS011;9296;48.084;16.352;2023-02-14T13:05:15;22.98;;;14.23;;
18340;SDS011;9296;48.084;16.352;2023-02-14T13:07:48;24.63;;;14.13;;
18340;SDS011;9296;48.084;16.352;2023-02-14T13:10:22;24.42;;;13.43;;
18340;SDS011;9296;48.084;16.352;2023-02-14T13:12:55;22.88;;;14.20;;
18340;SDS011;9296;48.084;16.352;2023-02-14T13:15:28;24.88;;;14.45;;
18340;SDS011;9296;48.084;16.352;2023-02-14T13:17:58;24.55;;;14.50;;
18340;SDS011;9296;48.084;16.352;2023-02-14T13:20:28;28.40;;;14.30;;
18340;SDS011;9296;48.084;16.352;2023-02-14T13:22:59;24.52;;;14.48;;
18340;SDS011;9296;48.084;16.352;2023-02-14T13:25:28;23.55;;;13.75;;
18340;SDS011;9296;48.084;16.352;2023-02-14T13:27:57;22.92;;;13.10;;
18340;SDS011;9296;48.084;16.352;2023-02-14T13:30:26;25.38;;;14.00;;
18340;SDS011;9296;48.084;16.352;2023-02-14T13:32:55;24.58;;;14.00;;
18340;SDS011;9296;48.084;16.352;2023-02-14T13:35:23;20.52;;;13.20;;
18340;SDS011;9296;48.084;16.352;2023-02-14T13:37:54;24.67;;;13.85;;
18340;SDS011;9296;48.084;16.352;2023-02-14T13:40:22;23.58;;;13.75;;
18340;SDS011;9296;48.084;16.352;2023-02-14T13:42:52;22.60;;;13.98;;
18340;SDS011;9296;48.084;16.352;2023-02-14T13:48:10;23.65;;;14.25;;
18340;SDS011;9296;48.084;16.352;2023-02-14T13:50:39;22.50;;;13.55;;
18340;SDS011;9296;48.084;16.352;2023-02-14T13:53:09;23.65;;;13.70;;
18340;SDS011;9296;48.084;16.352;2023-02-14T13:55:41;21.58;;;14.02;;
18340;SDS011;9296;48.084;16.352;2023-02-14T13:58:13;21.35;;;13.25;;
18340;SDS011;9296;48.084;16.352;2023-02-14T14:00:47;22.75;;;14.15;;
18340;SDS011;9296;48.084;16.352;2023-02-14T14:03:50;23.25;;;13.85;;
18340;SDS011;9296;48.084;16.352;2023-02-14T14:06:04;22.02;;;13.65;;
18340;SDS011;9296;48.084;16.352;2023-02-14T14:14:24;23.02;;;13.77;;
18340;SDS011;9296;48.084;16.352;2023-02-14T14:19:59;23.83;;;13.63;;
18340;SDS011;9296;48.084;16.352;2023-02-14T14:22:27;21.17;;;12.88;;
18340;SDS011;9296;48.084;16.352;2023-02-14T14:24:55;22.40;;;13.50;;
18340;SDS011;9296;48.084;16.352;2023-02-14T14:27:23;24.98;;;13.27;;
18340;SDS011;9296;48.084;16.352;2023-02-14T14:29:52;20.25;;;12.75;;
18340;SDS011;9296;48.084;16.352;2023-02-14T14:35:24;21.73;;;13.52;;
18340;SDS011;9296;48.084;16.352;2023-02-14T14:37:52;22.92;;;12.90;;
18340;SDS011;9296;48.084;16.352;2023-02-14T14:40:22;20.52;;;13.23;;
18340;SDS011;9296;48.084;16.352;2023-02-14T14:42:50;22.92;;;13.77;;
18340;SDS011;9296;48.084;16.352;2023-02-14T14:45:19;23.67;;;14.55;;
18340;SDS011;9296;48.084;16.352;2023-02-14T14:47:47;21.58;;;12.85;;
18340;SDS011;9296;48.084;16.352;2023-02-14T14:50:16;24.30;;;14.13;;
18340;SDS011;9296;48.084;16.352;2023-02-14T14:52:46;19.80;;;12.55;;
18340;SDS011;9296;48.084;16.352;2023-02-14T14:55:15;22.23;;;13.55;;
18340;SDS011;9296;48.084;16.352;2023-02-14T14:57:46;21.48;;;13.57;;
18340;SDS011;9296;48.084;16.352;2023-02-14T15:00:19;20.23;;;13.00;;
18340;SDS011;9296;48.084;16.352;2023-02-14T15:05:50;23.95;;;13.40;;
18340;SDS011;9296;48.084;16.352;2023-02-14T15:08:20;22.42;;;13.45;;
18340;SDS011;9296;48.084;16.352;2023-02-14T15:10:49;21.58;;;12.75;;
18340;SDS011;9296;48.084;16.352;2023-02-14T15:13:17;20.40;;;12.40;;
18340;SDS011;9296;48.084;16.352;2023-02-14T15:19:06;21.35;;;12.63;;
18340;SDS011;9296;48.084;16.352;2023-02-14T15:21:35;24.55;;;14.35;;
18340;SDS011;9296;48.084;16.352;2023-02-14T15:24:03;23.95;;;14.10;;
18340;SDS011;9296;48.084;16.352;2023-02-14T15:26:31;22.40;;;13.20;;
18340;SDS011;9296;48.084;16.352;2023-02-14T15:29:01;24.67;;;13.52;;
18340;SDS011;9296;48.084;16.352;2023-02-14T15:37:35;25.55;;;13.55;;
18340;SDS011;9296;48.084;16.352;2023-02-14T15:40:05;23.92;;;13.45;;
18340;SDS011;9296;48.084;16.352;2023-02-14T15:42:33;22.90;;;14.27;;
18340;SDS011;9296;48.084;16.352;2023-02-14T15:45:13;23.85;;;13.75;;
18340;SDS011;9296;48.084;16.352;2023-02-14T15:47:41;26.27;;;14.75;;
18340;SDS011;9296;48.084;16.352;2023-02-14T15:50:11;25.40;;;13.88;;
18340;SDS011;9296;48.084;16.352;2023-02-14T15:52:40;28.30;;;14.82;;
18340;SDS011;9296;48.084;16.352;2023-02-14T15:55:08;24.45;;;14.30;;
18340;SDS011;9296;48.084;16.352;2023-02-14T15:57:36;23.63;;;13.23;;
18340;SDS011;9296;48.084;16.352;2023-02-14T16:00:04;25.63;;;14.52;;
18340;SDS011;9296;48.084;16.352;2023-02-14T16:05:39;23.13;;;13.65;;
18340;SDS011;9296;48.084;16.352;2023-02-14T16:08:22;24.45;;;13.60;;
18340;SDS011;9296;48.084;16.352;2023-02-14T16:10:58;23.80;;;13.73;;
18340;SDS011;9296;48.084;16.352;2023-02-14T16:13:30;26.13;;;14.23;;
18340;SDS011;9296;48.084;16.352;2023-02-14T16:15:58;24.30;;;13.80;;
18340;SDS011;9296;48.084;16.352;2023-02-14T16:21:53;23.50;;;13.70;;
18340;SDS011;9296;48.084;16.352;2023-02-14T16:24:21;23.73;;;13.38;;
18340;SDS011;9296;48.084;16.352;2023-02-14T16:26:49;27.15;;;14.20;;
18340;SDS011;9296;48.084;16.352;2023-02-14T16:29:17;28.13;;;14.25;;
18340;SDS011;9296;48.084;16.352;2023-02-14T16:37:53;23.70;;;13.55;;
18340;SDS011;9296;48.084;16.352;2023-02-14T16:40:23;26.70;;;14.57;;
18340;SDS011;9296;48.084;16.352;2023-02-14T16:42:52;29.35;;;15.68;;
18340;SDS011;9296;48.084;16.352;2023-02-14T16:45:20;27.55;;;15.75;;